Hawk — LAGF7 — position and weather

sailwx.info

Track history (hours):
 
Tides and Currents Weather Stations Pressure Air Temp Water Temp Dewpoint Dewpoint Depression Visibility Wind Speed Wind Dir Waves Ship Positions

Hawk

Last reported at 2017-Apr-04 19:49 UTC. Time now 2017-Apr-26 03:58 UTC.
Position N 33°19' W 027°54'.
Warning: this ship's position is 21 days out of date.

Length 223 m; draft 10.7 m.

Type: Cargo ship. MMSI: 259848000.

Date/timePositionNaut miles runAvg speedWind from/ knotsBaromVisibWave heightAir tempDewpointWater temp
2017-Apr-04 19:49N 33°19' W 027°54'2811.5
2017-Apr-04 17:24N 33°32' W 027°25'611.3
2017-Apr-04 16:52N 33°35' W 027°18'2211.3
2017-Apr-04 14:56N 33°44' W 026°54'1911.5
2017-Apr-04 13:17N 33°54' W 026°35'1010.9
2017-Apr-04 12:20N 33°60' W 026°25'511.1
2017-Apr-04 11:52N 34°03' W 026°20'611.0
2017-Apr-04 11:18N 34°07' W 026°15'311.3
2017-Apr-04 11:00N 34°10' W 026°12'1011.3
2017-Apr-04 10:07N 34°17' W 026°03'611.3
2017-Apr-04 09:36N 34°20' W 025°58'211.1
2017-Apr-04 09:25N 34°22' W 025°56'611.2
2017-Apr-04 08:54N 34°25' W 025°50'411.2
2017-Apr-04 08:30N 34°27' W 025°45'611.2
2017-Apr-04 07:59N 34°30' W 025°39'611.1
2017-Apr-04 07:26N 34°33' W 025°33'511.0
2017-Apr-04 07:00N 34°35' W 025°28'510.5
2017-Apr-04 06:30N 34°38' W 025°22'510.0
2017-Apr-04 06:00N 34°40' W 025°17'510.8
2017-Apr-04 05:30N 34°43' W 025°11'610.9
2017-Apr-04 04:59N 34°46' W 025°05'510.9
2017-Apr-04 04:30N 34°49' W 024°60'510.7
2017-Apr-04 04:00N 34°51' W 024°54'511.0
2017-Apr-04 03:30N 34°54' W 024°48'510.9
2017-Apr-04 03:01N 34°57' W 024°43'510.3
2017-Apr-04 02:30N 34°58' W 024°36'510.8
2017-Apr-04 02:00N 35°01' W 024°31'911.1
2017-Apr-04 01:10N 35°06' W 024°21'211.3
2017-Apr-04 01:00N 35°07' W 024°19'511.1
2017-Apr-04 00:31N 35°10' W 024°13'510.9
2017-Apr-04 00:00N 35°12' W 024°08'611.1
2017-Apr-03 23:30N 35°15' W 024°02'510.9
2017-Apr-03 23:00N 35°18' W 023°56'611.0
2017-Apr-03 22:30N 35°21' W 023°50'611.1
2017-Apr-03 21:57N 35°24' W 023°44'510.8
2017-Apr-03 21:30N 35°27' W 023°39'610.6
2017-Apr-03 20:54N 35°30' W 023°33'410.9
2017-Apr-03 20:30N 35°33' W 023°29'611.1
2017-Apr-03 20:00N 35°37' W 023°24'711.3
2017-Apr-03 19:21N 35°42' W 023°17'411.0
2017-Apr-03 19:00N 35°45' W 023°14'1410.9
2017-Apr-03 17:43N 35°54' W 023°01'710.9
2017-Apr-03 17:03N 35°60' W 022°54'011.1
2017-Apr-03 17:00N 35°60' W 022°54'510.9
2017-Apr-03 16:30N 36°04' W 022°49'711.0
2017-Apr-03 15:54N 36°08' W 022°43'411.1
2017-Apr-03 15:30N 36°10' W 022°39'811.2
2017-Apr-03 14:47N 36°16' W 022°31'1711.3
2017-Apr-03 13:15N 36°28' W 022°16'711.1
2017-Apr-03 12:38N 36°32' W 022°09'311.6
2017-Apr-03 12:20N 36°34' W 022°05'2011.4
2017-Apr-03 10:33N 36°47' W 021°46'  
2017-Mar-29 14:24N 49°47' W 003°43'1112.9
2017-Mar-29 13:33N 49°51' W 003°28'1313.0
2017-Mar-29 12:33N 49°57' W 003°09'1212.0
2017-Mar-29 11:33N 50°01' W 002°52'27 8.9
2017-Mar-29 08:33N 50°07' W 002°11'7 7.1
2017-Mar-29 07:33N 50°09' W 002°01'8 8.0
2017-Mar-29 06:33N 50°12' W 001°49'1010.0
2017-Mar-29 05:33N 50°15' W 001°34'1212.5
2017-Mar-29 04:34N 50°18' W 001°16'1814.2
2017-Mar-29 03:18N 50°23' W 000°49'1014.0
2017-Mar-29 02:33N 50°27' W 000°33'1313.1
2017-Mar-29 01:34N 50°29' W 000°13'1212.1
2017-Mar-29 00:33N 50°33' E 000°05'1111.0
2017-Mar-28 23:33N 50°36' E 000°22'1010.2
2017-Mar-28 22:33N 50°38' E 000°37'10 9.9
2017-Mar-28 21:34N 50°43' E 000°51'1110.7
2017-Mar-28 20:33N 50°49' E 001°05'9 9.4
2017-Mar-28 19:34N 50°54' E 001°17'1414.0
2017-Mar-28 18:33N 51°06' E 001°30'1312.7
2017-Mar-28 17:33N 51°14' E 001°45'1010.5
2017-Mar-28 16:34N 51°23' E 001°55'9 8.7
2017-Mar-28 15:33N 51°22' E 002°09'9 9.4
2017-Mar-28 14:33N 51°22' E 002°24'9 8.9
2017-Mar-28 13:33N 51°23' E 002°38'6 5.6
2017-Mar-28 12:34N 51°22' E 002°47'9 8.9
2017-Mar-28 11:33N 51°24' E 003°01'9 9.3
2017-Mar-28 10:33N 51°25' E 003°15'1010.0
2017-Mar-28 09:33N 51°25' E 003°31'9 9.1
2017-Mar-28 08:33N 51°24' E 003°46'0 0.1
2017-Mar-28 07:29N 51°24' E 003°46'0 0.1
2017-Mar-28 06:32N 51°24' E 003°46'0 0.0
2017-Mar-28 05:33N 51°24' E 003°46'0 0.0
2017-Mar-28 04:29N 51°24' E 003°46'0 0.1
2017-Mar-28 03:32N 51°24' E 003°46'0 0.2
2017-Mar-28 02:32N 51°24' E 003°46'0 0.1
2017-Mar-28 01:32N 51°24' E 003°46'0 0.0
2017-Mar-28 00:32N 51°24' E 003°46'0 0.1
2017-Mar-27 23:17N 51°24' E 003°46'0 0.0
2017-Mar-27 22:32N 51°24' E 003°46'0 0.0
2017-Mar-27 21:29N 51°24' E 003°46'0 0.2
2017-Mar-27 20:29N 51°24' E 003°46'0 0.2
2017-Mar-27 19:29N 51°24' E 003°46'0 0.0
2017-Mar-27 18:23N 51°24' E 003°46'0 0.0
2017-Mar-27 17:29N 51°24' E 003°46'0 0.0
2017-Mar-27 16:29N 51°24' E 003°46'0 0.0
2017-Mar-27 15:29N 51°24' E 003°46'0 0.2
2017-Mar-27 14:17N 51°24' E 003°46'0 0.1
2017-Mar-27 13:32N 51°24' E 003°46'0 0.0
2017-Mar-27 12:29N 51°24' E 003°46'0 0.0
2017-Mar-27 11:32N 51°24' E 003°46'0 0.0
2017-Mar-27 10:32N 51°24' E 003°46'0 0.0
2017-Mar-27 09:32N 51°24' E 003°46'2 1.5
2017-Mar-27 08:33N 51°24' E 003°44'7 6.9
2017-Mar-27 07:34N 51°25' E 003°33'8 7.8
2017-Mar-27 06:33N 51°24' E 003°21'8 7.9
2017-Mar-27 05:34N 51°24' E 003°08'9 8.8
2017-Mar-27 04:34N 51°22' E 002°54'10 9.9
2017-Mar-27 03:34N 51°22' E 002°38'9 8.9
2017-Mar-27 02:34N 51°21' E 002°24'10 9.7
2017-Mar-27 01:34N 51°20' E 002°09'7 7.4
2017-Mar-27 00:34N 51°24' E 001°59'8 8.1
2017-Mar-26 23:33N 51°31' E 002°07'9 8.8
2017-Mar-26 22:34N 51°38' E 002°15'9 8.7
2017-Mar-26 21:33N 51°45' E 002°24'9 8.7
2017-Mar-26 20:33N 51°52' E 002°31'9 9.0
2017-Mar-26 19:31N 52°01' E 002°34'9 9.4
2017-Mar-26 18:33N 52°10' E 002°38'10 9.7
2017-Mar-26 17:33N 52°19' E 002°46'10 9.8
2017-Mar-26 16:32N 52°27' E 002°53'10 9.9
2017-Mar-26 15:33N 52°36' E 003°00'10 9.6
2017-Mar-26 14:33N 52°45' E 003°07'10 9.4
2017-Mar-26 13:31N 52°53' E 003°14'9 9.4
2017-Mar-26 12:33N 53°02' E 003°20'9 9.4
2017-Mar-26 11:34N 53°11' E 003°24'9 9.2
2017-Mar-26 10:33N 53°20' E 003°29'9 9.4
2017-Mar-26 09:33N 53°29' E 003°33'10 9.6
2017-Mar-26 08:34N 53°38' E 003°38'11 9.2
2017-Mar-26 07:23N 53°47' E 003°49'8 9.5
2017-Mar-26 06:31N 53°52' E 003°60'  
Track history (hours):
 
Tides and Currents Weather Stations Pressure Air Temp Water Temp Dewpoint Dewpoint Depression Visibility Wind Speed Wind Dir Waves Ship Positions

Hawk

Last reported at 2017-Apr-04 19:49 UTC. Time now 2017-Apr-26 03:58 UTC.
Position N 33°19' W 027°54'.
Warning: this ship's position is 21 days out of date.

Length 223 m; draft 10.7 m.

Type: Cargo ship. MMSI: 259848000.

Date/timePositionNaut miles runAvg speedWind from/ knotsBaromVisibWave heightAir tempDewpointWater temp
2017-Apr-04 19:49N 33°19' W 027°54'2811.5
2017-Apr-04 17:24N 33°32' W 027°25'611.3
2017-Apr-04 16:52N 33°35' W 027°18'2211.3
2017-Apr-04 14:56N 33°44' W 026°54'1911.5
2017-Apr-04 13:17N 33°54' W 026°35'1010.9
2017-Apr-04 12:20N 33°60' W 026°25'511.1
2017-Apr-04 11:52N 34°03' W 026°20'611.0
2017-Apr-04 11:18N 34°07' W 026°15'311.3
2017-Apr-04 11:00N 34°10' W 026°12'1011.3
2017-Apr-04 10:07N 34°17' W 026°03'611.3
2017-Apr-04 09:36N 34°20' W 025°58'211.1
2017-Apr-04 09:25N 34°22' W 025°56'611.2
2017-Apr-04 08:54N 34°25' W 025°50'411.2
2017-Apr-04 08:30N 34°27' W 025°45'611.2
2017-Apr-04 07:59N 34°30' W 025°39'611.1
2017-Apr-04 07:26N 34°33' W 025°33'511.0
2017-Apr-04 07:00N 34°35' W 025°28'510.5
2017-Apr-04 06:30N 34°38' W 025°22'510.0
2017-Apr-04 06:00N 34°40' W 025°17'510.8
2017-Apr-04 05:30N 34°43' W 025°11'610.9
2017-Apr-04 04:59N 34°46' W 025°05'510.9
2017-Apr-04 04:30N 34°49' W 024°60'510.7
2017-Apr-04 04:00N 34°51' W 024°54'511.0
2017-Apr-04 03:30N 34°54' W 024°48'510.9
2017-Apr-04 03:01N 34°57' W 024°43'510.3
2017-Apr-04 02:30N 34°58' W 024°36'510.8
2017-Apr-04 02:00N 35°01' W 024°31'911.1
2017-Apr-04 01:10N 35°06' W 024°21'211.3
2017-Apr-04 01:00N 35°07' W 024°19'511.1
2017-Apr-04 00:31N 35°10' W 024°13'510.9
2017-Apr-04 00:00N 35°12' W 024°08'611.1
2017-Apr-03 23:30N 35°15' W 024°02'510.9
2017-Apr-03 23:00N 35°18' W 023°56'611.0
2017-Apr-03 22:30N 35°21' W 023°50'611.1
2017-Apr-03 21:57N 35°24' W 023°44'510.8
2017-Apr-03 21:30N 35°27' W 023°39'610.6
2017-Apr-03 20:54N 35°30' W 023°33'410.9
2017-Apr-03 20:30N 35°33' W 023°29'611.1
2017-Apr-03 20:00N 35°37' W 023°24'711.3
2017-Apr-03 19:21N 35°42' W 023°17'411.0
2017-Apr-03 19:00N 35°45' W 023°14'1410.9
2017-Apr-03 17:43N 35°54' W 023°01'710.9
2017-Apr-03 17:03N 35°60' W 022°54'011.1
2017-Apr-03 17:00N 35°60' W 022°54'510.9
2017-Apr-03 16:30N 36°04' W 022°49'711.0
2017-Apr-03 15:54N 36°08' W 022°43'411.1
2017-Apr-03 15:30N 36°10' W 022°39'811.2
2017-Apr-03 14:47N 36°16' W 022°31'1711.3
2017-Apr-03 13:15N 36°28' W 022°16'711.1
2017-Apr-03 12:38N 36°32' W 022°09'311.6
2017-Apr-03 12:20N 36°34' W 022°05'2011.4
2017-Apr-03 10:33N 36°47' W 021°46'  
2017-Mar-29 14:24N 49°47' W 003°43'1112.9
2017-Mar-29 13:33N 49°51' W 003°28'1313.0
2017-Mar-29 12:33N 49°57' W 003°09'1212.0
2017-Mar-29 11:33N 50°01' W 002°52'27 8.9
2017-Mar-29 08:33N 50°07' W 002°11'7 7.1
2017-Mar-29 07:33N 50°09' W 002°01'8 8.0
2017-Mar-29 06:33N 50°12' W 001°49'1010.0
2017-Mar-29 05:33N 50°15' W 001°34'1212.5
2017-Mar-29 04:34N 50°18' W 001°16'1814.2
2017-Mar-29 03:18N 50°23' W 000°49'1014.0
2017-Mar-29 02:33N 50°27' W 000°33'1313.1
2017-Mar-29 01:34N 50°29' W 000°13'1212.1
2017-Mar-29 00:33N 50°33' E 000°05'1111.0
2017-Mar-28 23:33N 50°36' E 000°22'1010.2
2017-Mar-28 22:33N 50°38' E 000°37'10 9.9
2017-Mar-28 21:34N 50°43' E 000°51'1110.7
2017-Mar-28 20:33N 50°49' E 001°05'9 9.4
2017-Mar-28 19:34N 50°54' E 001°17'1414.0
2017-Mar-28 18:33N 51°06' E 001°30'1312.7
2017-Mar-28 17:33N 51°14' E 001°45'1010.5
2017-Mar-28 16:34N 51°23' E 001°55'9 8.7
2017-Mar-28 15:33N 51°22' E 002°09'9 9.4
2017-Mar-28 14:33N 51°22' E 002°24'9 8.9
2017-Mar-28 13:33N 51°23' E 002°38'6 5.6
2017-Mar-28 12:34N 51°22' E 002°47'9 8.9
2017-Mar-28 11:33N 51°24' E 003°01'9 9.3
2017-Mar-28 10:33N 51°25' E 003°15'1010.0
2017-Mar-28 09:33N 51°25' E 003°31'9 9.1
2017-Mar-28 08:33N 51°24' E 003°46'0 0.1
2017-Mar-28 07:29N 51°24' E 003°46'0 0.1
2017-Mar-28 06:32N 51°24' E 003°46'0 0.0
2017-Mar-28 05:33N 51°24' E 003°46'0 0.0
2017-Mar-28 04:29N 51°24' E 003°46'0 0.1
2017-Mar-28 03:32N 51°24' E 003°46'0 0.2
2017-Mar-28 02:32N 51°24' E 003°46'0 0.1
2017-Mar-28 01:32N 51°24' E 003°46'0 0.0
2017-Mar-28 00:32N 51°24' E 003°46'0 0.1
2017-Mar-27 23:17N 51°24' E 003°46'0 0.0
2017-Mar-27 22:32N 51°24' E 003°46'0 0.0
2017-Mar-27 21:29N 51°24' E 003°46'0 0.2
2017-Mar-27 20:29N 51°24' E 003°46'0 0.2
2017-Mar-27 19:29N 51°24' E 003°46'0 0.0
2017-Mar-27 18:23N 51°24' E 003°46'0 0.0
2017-Mar-27 17:29N 51°24' E 003°46'0 0.0
2017-Mar-27 16:29N 51°24' E 003°46'0 0.0
2017-Mar-27 15:29N 51°24' E 003°46'0 0.2
2017-Mar-27 14:17N 51°24' E 003°46'0 0.1
2017-Mar-27 13:32N 51°24' E 003°46'0 0.0
2017-Mar-27 12:29N 51°24' E 003°46'0 0.0
2017-Mar-27 11:32N 51°24' E 003°46'0 0.0
2017-Mar-27 10:32N 51°24' E 003°46'0 0.0
2017-Mar-27 09:32N 51°24' E 003°46'2 1.5
2017-Mar-27 08:33N 51°24' E 003°44'7 6.9
2017-Mar-27 07:34N 51°25' E 003°33'8 7.8
2017-Mar-27 06:33N 51°24' E 003°21'8 7.9
2017-Mar-27 05:34N 51°24' E 003°08'9 8.8
2017-Mar-27 04:34N 51°22' E 002°54'10 9.9
2017-Mar-27 03:34N 51°22' E 002°38'9 8.9
2017-Mar-27 02:34N 51°21' E 002°24'10 9.7
2017-Mar-27 01:34N 51°20' E 002°09'7 7.4
2017-Mar-27 00:34N 51°24' E 001°59'8 8.1
2017-Mar-26 23:33N 51°31' E 002°07'9 8.8
2017-Mar-26 22:34N 51°38' E 002°15'9 8.7
2017-Mar-26 21:33N 51°45' E 002°24'9 8.7
2017-Mar-26 20:33N 51°52' E 002°31'9 9.0
2017-Mar-26 19:31N 52°01' E 002°34'9 9.4
2017-Mar-26 18:33N 52°10' E 002°38'10 9.7
2017-Mar-26 17:33N 52°19' E 002°46'10 9.8
2017-Mar-26 16:32N 52°27' E 002°53'10 9.9
2017-Mar-26 15:33N 52°36' E 003°00'10 9.6
2017-Mar-26 14:33N 52°45' E 003°07'10 9.4
2017-Mar-26 13:31N 52°53' E 003°14'9 9.4
2017-Mar-26 12:33N 53°02' E 003°20'9 9.4
2017-Mar-26 11:34N 53°11' E 003°24'9 9.2
2017-Mar-26 10:33N 53°20' E 003°29'9 9.4
2017-Mar-26 09:33N 53°29' E 003°33'10 9.6
2017-Mar-26 08:34N 53°38' E 003°38'11 9.2
2017-Mar-26 07:23N 53°47' E 003°49'8 9.5
2017-Mar-26 06:31N 53°52' E 003°60'  

Dump ship's entire track history